Time;durP1;ratioP1;P1;durP2;ratioP2;P2;SDS_P1;SDS_P2;PMS_P1;PMS_P2;Temp;Humidity;BMP_temperature;BMP_pressure;BME280_temperature;BME280_humidity;BME280_pressure;Samples;Min_cycle;Max_cycle;Signal;HPM_P1;HPM_P2
2022/09/18 00:01:43;;;;;;;6.55;1.67;;;;;;;;;;4911032;29;20044;-89
2022/09/18 00:04:12;;;;;;;10.95;2.13;;;;;;;;;;4902897;29;20044;-89
2022/09/18 00:06:39;;;;;;;19.63;2.05;;;;;;;;;;4943914;28;20040;-90
2022/09/18 00:09:07;;;;;;;9.55;1.60;;;;;;;;;;4935146;29;20035;-89
2022/09/18 00:11:35;;;;;;;20.52;2.05;;;;;;;;;;4927512;29;20023;-89
2022/09/18 00:14:01;;;;;;;11.32;2.58;;;;;;;;;;4950327;28;20027;-89
2022/09/18 00:16:27;;;;;;;21.38;1.98;;;;;;;;;;4915432;28;20122;-89
2022/09/18 00:18:53;;;;;;;12.90;1.92;;;;;;;;;;4915753;29;20066;-89
2022/09/18 00:21:22;;;;;;;14.20;3.50;;;;;;;;;;4918014;28;20365;-90
2022/09/18 00:23:49;;;;;;;13.18;1.75;;;;;;;;;;4949783;28;21397;-90
2022/09/18 00:26:16;;;;;;;12.45;1.77;;;;;;;;;;4950575;28;20037;-90
2022/09/18 00:28:42;;;;;;;11.73;1.92;;;;;;;;;;4950824;28;20027;-90
2022/09/18 00:31:10;;;;;;;19.58;2.40;;;;;;;;;;4934388;29;20038;-91
2022/09/18 00:33:36;;;;;;;17.48;2.42;;;;;;;;;;4949727;28;20027;-91
2022/09/18 00:36:03;;;;;;;10.60;1.90;;;;;;;;;;4931901;28;20050;-90
2022/09/18 00:38:32;;;;;;;10.60;2.05;;;;;;;;;;4930618;28;21109;-90
2022/09/18 00:41:03;;;;;;;14.85;2.67;;;;;;;;;;4911720;29;20562;-91
2022/09/18 00:43:30;;;;;;;17.73;2.50;;;;;;;;;;4934542;28;20057;-90
2022/09/18 00:46:17;;;;;;;11.73;2.63;;;;;;;;;;4944808;28;20039;-90
2022/09/18 00:48:46;;;;;;;14.32;1.80;;;;;;;;;;4938691;28;20566;-91
2022/09/18 00:51:12;;;;;;;23.17;2.20;;;;;;;;;;4942560;28;20490;-90
2022/09/18 00:53:41;;;;;;;14.35;2.20;;;;;;;;;;4923520;28;20034;-92
2022/09/18 00:56:07;;;;;;;15.38;2.25;;;;;;;;;;4926946;28;20064;-93
2022/09/18 00:58:33;;;;;;;20.67;2.15;;;;;;;;;;4930473;28;20042;-93
2022/09/18 01:01:01;;;;;;;10.27;1.58;;;;;;;;;;4933806;29;20090;-92
2022/09/18 01:03:28;;;;;;;13.98;1.70;;;;;;;;;;4917143;29;20030;-92
2022/09/18 01:05:57;;;;;;;9.95;1.33;;;;;;;;;;4925438;28;20083;-92
2022/09/18 01:08:42;;;;;;;15.18;1.75;;;;;;;;;;4905544;29;20095;-91
2022/09/18 01:11:16;;;;;;;14.25;1.83;;;;;;;;;;4927959;29;20036;-91
2022/09/18 01:13:56;;;;;;;15.32;1.63;;;;;;;;;;4915336;29;20119;-91
2022/09/18 01:16:26;;;;;;;18.45;1.42;;;;;;;;;;4907991;29;20939;-91
2022/09/18 01:18:58;;;;;;;17.63;1.95;;;;;;;;;;4909180;29;20044;-92
2022/09/18 01:21:33;;;;;;;16.05;1.55;;;;;;;;;;4904516;29;20048;-92
2022/09/18 01:24:05;;;;;;;5.00;1.25;;;;;;;;;;4924565;29;20062;-92
2022/09/18 01:26:38;;;;;;;7.43;1.33;;;;;;;;;;4929789;29;20086;-92
2022/09/18 01:29:04;;;;;;;6.07;1.27;;;;;;;;;;4913419;29;20103;-91
2022/09/18 01:31:32;;;;;;;17.45;2.33;;;;;;;;;;4913221;29;20031;-91
2022/09/18 01:33:58;;;;;;;11.95;1.38;;;;;;;;;;4911844;29;20117;-91
2022/09/18 01:36:26;;;;;;;10.10;1.38;;;;;;;;;;4908309;29;20166;-91
2022/09/18 01:39:04;;;;;;;5.40;1.42;;;;;;;;;;4913738;29;20082;-91
2022/09/18 01:41:30;;;;;;;8.68;1.35;;;;;;;;;;4918967;29;20038;-92
2022/09/18 01:44:08;;;;;;;7.75;1.48;;;;;;;;;;4900558;29;20062;-92
2022/09/18 01:46:37;;;;;;;9.23;1.33;;;;;;;;;;4906995;29;20016;-92
2022/09/18 01:49:05;;;;;;;4.93;1.02;;;;;;;;;;4926540;29;20558;-91
2022/09/18 01:51:44;;;;;;;9.60;1.67;;;;;;;;;;4912369;29;20492;-91
2022/09/18 01:54:15;;;;;;;13.65;1.40;;;;;;;;;;4909381;29;20514;-91
2022/09/18 01:56:47;;;;;;;15.63;2.13;;;;;;;;;;4909545;29;20051;-92
2022/09/18 01:59:34;;;;;;;11.65;1.58;;;;;;;;;;4914381;29;20019;-93
2022/09/18 02:01:59;;;;;;;;;;;;;;;;;;4910435;29;20146;-91
2022/09/18 02:04:27;;;;;;;11.45;2.08;;;;;;;;;;4928720;29;20351;-90
2022/09/18 02:07:07;;;;;;;10.35;1.90;;;;;;;;;;4918593;28;20043;-92
2022/09/18 02:09:33;;;;;;;9.90;2.13;;;;;;;;;;4949813;28;20035;-91
2022/09/18 02:12:01;;;;;;;10.07;1.75;;;;;;;;;;4926508;28;20046;-92
2022/09/18 02:14:29;;;;;;;14.23;1.95;;;;;;;;;;4932054;28;20115;-91
2022/09/18 02:17:05;;;;;;;7.03;1.33;;;;;;;;;;4931844;29;20066;-92
2022/09/18 02:20:00;;;;;;;18.83;1.90;;;;;;;;;;4930871;28;20040;-91
2022/09/18 02:22:29;;;;;;;7.60;2.30;;;;;;;;;;4923233;29;20435;-92
2022/09/18 02:24:58;;;;;;;13.27;2.20;;;;;;;;;;4931281;28;20030;-91
2022/09/18 02:27:25;;;;;;;13.52;1.67;;;;;;;;;;4928555;28;20039;-91
2022/09/18 02:29:52;;;;;;;17.60;1.90;;;;;;;;;;4930989;29;20039;-91
2022/09/18 02:32:18;;;;;;;11.27;1.60;;;;;;;;;;4927909;28;20151;-91
2022/09/18 02:34:44;;;;;;;17.63;1.77;;;;;;;;;;4918163;28;20039;-91
2022/09/18 02:37:11;;;;;;;18.95;1.85;;;;;;;;;;4929725;28;20090;-90
2022/09/18 02:39:55;;;;;;;22.55;2.03;;;;;;;;;;4927195;29;20349;-91
2022/09/18 02:42:48;;;;;;;13.50;2.00;;;;;;;;;;4924543;29;20257;-91
2022/09/18 02:45:28;;;;;;;13.10;1.70;;;;;;;;;;4923535;29;20032;-91
2022/09/18 02:48:01;;;;;;;22.88;2.45;;;;;;;;;;4928522;29;20035;-91
2022/09/18 02:50:45;;;;;;;14.98;2.03;;;;;;;;;;4950423;28;20035;-91
2022/09/18 02:53:21;;;;;;;15.13;1.80;;;;;;;;;;4942748;28;20062;-91
2022/09/18 02:55:50;;;;;;;18.25;1.95;;;;;;;;;;4945512;28;20042;-91
2022/09/18 02:58:20;;;;;;;9.98;1.30;;;;;;;;;;4925392;29;20063;-91
2022/09/18 03:00:47;;;;;;;13.85;1.52;;;;;;;;;;4929297;29;20585;-91
2022/09/18 03:03:14;;;;;;;19.38;1.98;;;;;;;;;;4929430;28;20035;-93
2022/09/18 03:05:40;;;;;;;13.40;2.10;;;;;;;;;;4923784;28;20509;-92
2022/09/18 03:08:06;;;;;;;14.15;2.15;;;;;;;;;;4894811;29;20036;-92
2022/09/18 03:10:32;;;;;;;15.43;1.77;;;;;;;;;;4893451;29;20043;-92
2022/09/18 03:12:58;;;;;;;16.63;1.63;;;;;;;;;;4884145;29;20063;-93
2022/09/18 03:15:24;;;;;;;15.20;1.80;;;;;;;;;;4912276;29;20044;-93
2022/09/18 03:17:50;;;;;;;9.23;1.52;;;;;;;;;;4897934;29;20040;-91
2022/09/18 03:20:16;;;;;;;13.75;1.52;;;;;;;;;;4891293;29;20052;-92
2022/09/18 03:22:42;;;;;;;12.55;1.27;;;;;;;;;;4908864;29;20039;-92
2022/09/18 03:25:08;;;;;;;17.05;2.63;;;;;;;;;;4889717;29;20415;-92
2022/09/18 03:27:34;;;;;;;10.48;1.63;;;;;;;;;;4908663;29;20029;-91
2022/09/18 03:30:00;;;;;;;12.20;1.38;;;;;;;;;;4907265;29;20039;-92
2022/09/18 03:32:26;;;;;;;7.57;1.63;;;;;;;;;;4888877;29;20047;-91
2022/09/18 03:34:52;;;;;;;8.68;1.52;;;;;;;;;;4893978;29;20040;-92
2022/09/18 03:37:18;;;;;;;5.93;1.23;;;;;;;;;;4893933;29;20056;-92
2022/09/18 03:39:44;;;;;;;19.45;2.17;;;;;;;;;;4908365;29;20036;-91
2022/09/18 03:42:10;;;;;;;6.55;1.60;;;;;;;;;;4909795;29;20072;-92
2022/09/18 03:44:36;;;;;;;15.13;1.85;;;;;;;;;;4894783;29;20739;-91
2022/09/18 03:47:03;;;;;;;10.90;1.70;;;;;;;;;;4896029;29;20039;-92
2022/09/18 03:49:29;;;;;;;10.18;1.75;;;;;;;;;;4899403;29;20218;-92
2022/09/18 03:51:55;;;;;;;23.17;2.80;;;;;;;;;;4900662;29;20147;-92
2022/09/18 03:54:21;;;;;;;20.00;1.30;;;;;;;;;;4884548;29;20070;-92
2022/09/18 03:56:47;;;;;;;5.03;1.25;;;;;;;;;;4898251;29;20029;-91
2022/09/18 03:59:13;;;;;;;16.00;1.85;;;;;;;;;;4888283;29;20162;-92
2022/09/18 04:01:39;;;;;;;9.95;1.85;;;;;;;;;;4892803;29;20044;-91
2022/09/18 04:04:05;;;;;;;13.88;0.93;;;;;;;;;;4892622;29;20610;-92
2022/09/18 04:06:32;;;;;;;8.18;1.20;;;;;;;;;;4902933;28;20523;-91
2022/09/18 04:08:58;;;;;;;11.60;1.50;;;;;;;;;;4948542;28;20067;-91
2022/09/18 04:11:24;;;;;;;12.52;1.17;;;;;;;;;;4918627;29;20031;-91
2022/09/18 04:13:50;;;;;;;9.88;1.67;;;;;;;;;;4920246;28;20097;-91
2022/09/18 04:16:16;;;;;;;9.38;1.33;;;;;;;;;;4917218;29;20069;-91
2022/09/18 04:18:42;;;;;;;20.48;3.55;;;;;;;;;;4916743;29;20043;-91
2022/09/18 04:21:08;;;;;;;20.25;3.03;;;;;;;;;;4917626;28;20544;-91
2022/09/18 04:23:34;;;;;;;9.50;1.45;;;;;;;;;;4930738;29;20645;-91
2022/09/18 04:26:07;;;;;;;10.60;1.52;;;;;;;;;;4920319;28;20025;-91
2022/09/18 04:28:33;;;;;;;8.55;1.48;;;;;;;;;;4917319;29;20468;-91
2022/09/18 04:30:59;;;;;;;12.27;1.73;;;;;;;;;;4916902;29;20050;-91
2022/09/18 04:33:25;;;;;;;13.73;1.70;;;;;;;;;;4948064;28;20053;-89
2022/09/18 04:35:51;;;;;;;9.02;1.10;;;;;;;;;;4917205;29;20038;-91
2022/09/18 04:38:18;;;;;;;14.40;2.08;;;;;;;;;;4917735;28;20034;-90
2022/09/18 04:40:44;;;;;;;19.20;1.55;;;;;;;;;;4933701;29;20134;-92
2022/09/18 04:43:10;;;;;;;15.18;1.35;;;;;;;;;;4947819;28;20103;-91
2022/09/18 04:45:36;;;;;;;7.90;2.42;;;;;;;;;;4917290;29;20498;-92
2022/09/18 04:48:02;;;;;;;16.23;2.15;;;;;;;;;;4931751;29;20761;-90
2022/09/18 04:50:28;;;;;;;15.30;1.63;;;;;;;;;;4932146;29;20039;-90
2022/09/18 04:52:55;;;;;;;15.05;1.88;;;;;;;;;;4913832;28;20046;-90
2022/09/18 04:55:21;;;;;;;8.85;2.40;;;;;;;;;;4916106;29;20027;-91
2022/09/18 04:57:47;;;;;;;11.07;1.52;;;;;;;;;;4919932;28;20051;-91
2022/09/18 05:00:13;;;;;;;11.35;1.20;;;;;;;;;;4931349;29;20032;-91
2022/09/18 05:02:39;;;;;;;9.98;1.45;;;;;;;;;;4915028;28;20487;-89
2022/09/18 05:05:05;;;;;;;14.43;3.47;;;;;;;;;;4913897;28;20031;-91
2022/09/18 05:07:31;;;;;;;15.85;2.03;;;;;;;;;;4916995;28;20488;-91
2022/09/18 05:09:57;;;;;;;17.08;1.85;;;;;;;;;;4943844;28;20043;-91
2022/09/18 05:12:24;;;;;;;18.58;2.03;;;;;;;;;;4918039;29;20312;-92
2022/09/18 05:14:50;;;;;;;12.63;1.48;;;;;;;;;;4915279;29;20469;-93
2022/09/18 05:17:16;;;;;;;13.73;2.05;;;;;;;;;;4919699;29;20067;-92
2022/09/18 05:19:42;;;;;;;16.75;2.03;;;;;;;;;;4919198;29;20047;-92
2022/09/18 05:22:08;;;;;;;17.20;2.10;;;;;;;;;;4919975;29;20574;-92
2022/09/18 05:24:34;;;;;;;7.00;1.52;;;;;;;;;;4933666;29;20135;-92
2022/09/18 05:27:00;;;;;;;15.18;1.50;;;;;;;;;;4927666;29;20628;-91
2022/09/18 05:29:26;;;;;;;8.13;1.52;;;;;;;;;;4931848;28;20554;-92
2022/09/18 05:31:52;;;;;;;10.50;1.20;;;;;;;;;;4928049;29;20138;-92
2022/09/18 05:34:18;;;;;;;9.93;1.33;;;;;;;;;;4919939;28;20038;-91
2022/09/18 05:36:45;;;;;;;10.60;1.70;;;;;;;;;;4914554;29;20039;-91
2022/09/18 05:39:11;;;;;;;9.60;1.10;;;;;;;;;;4913252;28;20964;-92
2022/09/18 05:41:37;;;;;;;7.15;1.60;;;;;;;;;;4911809;28;20031;-91
2022/09/18 05:44:03;;;;;;;5.70;1.15;;;;;;;;;;4915720;29;20047;-91
2022/09/18 05:46:29;;;;;;;14.60;2.05;;;;;;;;;;4927141;29;20034;-90
2022/09/18 05:48:55;;;;;;;11.77;1.38;;;;;;;;;;4935863;29;20241;-91
2022/09/18 05:51:21;;;;;;;14.18;1.55;;;;;;;;;;4915956;29;20027;-91
2022/09/18 05:53:47;;;;;;;11.45;1.35;;;;;;;;;;4919216;28;20031;-91
2022/09/18 05:56:16;;;;;;;12.40;1.50;;;;;;;;;;4919204;28;20049;-92
2022/09/18 05:58:42;;;;;;;10.93;1.63;;;;;;;;;;4930446;29;20395;-93
2022/09/18 06:01:08;;;;;;;18.15;2.25;;;;;;;;;;4928398;29;20027;-92
2022/09/18 06:03:35;;;;;;;8.70;1.20;;;;;;;;;;4912877;29;20035;-92
2022/09/18 06:06:01;;;;;;;15.73;1.35;;;;;;;;;;4911244;28;20591;-92
2022/09/18 06:08:27;;;;;;;9.60;1.30;;;;;;;;;;4895284;29;20091;-91
2022/09/18 06:10:53;;;;;;;7.53;1.02;;;;;;;;;;4908338;29;20135;-91
2022/09/18 06:13:19;;;;;;;5.18;1.40;;;;;;;;;;4897253;29;20044;-90
2022/09/18 06:15:46;;;;;;;11.27;1.70;;;;;;;;;;4897666;29;20040;-91
2022/09/18 06:18:13;;;;;;;11.95;1.70;;;;;;;;;;4896037;29;20132;-91
2022/09/18 06:20:40;;;;;;;10.77;1.48;;;;;;;;;;4928597;29;20048;-91
2022/09/18 06:23:06;;;;;;;13.30;1.73;;;;;;;;;;4927705;29;20040;-91
2022/09/18 06:25:32;;;;;;;17.00;1.65;;;;;;;;;;4915521;29;20043;-91
2022/09/18 06:27:59;;;;;;;19.90;2.00;;;;;;;;;;4911520;29;20811;-91
2022/09/18 06:30:26;;;;;;;19.90;2.25;;;;;;;;;;4916586;29;20033;-91
2022/09/18 06:32:53;;;;;;;22.88;2.67;;;;;;;;;;4911779;29;20095;-91
2022/09/18 06:35:19;;;;;;;17.73;1.80;;;;;;;;;;4912998;29;20032;-91
2022/09/18 06:37:45;;;;;;;13.07;1.95;;;;;;;;;;4912251;29;20023;-91
2022/09/18 06:40:11;;;;;;;18.25;1.75;;;;;;;;;;4896314;29;20024;-91
2022/09/18 06:42:37;;;;;;;13.27;1.50;;;;;;;;;;4907430;29;20365;-91
2022/09/18 06:45:03;;;;;;;13.73;1.58;;;;;;;;;;4943163;28;20094;-91
2022/09/18 06:47:29;;;;;;;14.43;2.00;;;;;;;;;;4914333;29;20020;-91
2022/09/18 06:49:55;;;;;;;14.45;1.63;;;;;;;;;;4912213;29;20116;-91
2022/09/18 06:52:21;;;;;;;20.70;2.33;;;;;;;;;;4926528;29;20082;-91
2022/09/18 06:54:47;;;;;;;13.63;1.50;;;;;;;;;;4927430;29;20127;-91
2022/09/18 06:57:13;;;;;;;11.95;1.35;;;;;;;;;;4915431;29;20084;-91
2022/09/18 06:59:39;;;;;;;11.00;2.00;;;;;;;;;;4913416;29;20084;-91
2022/09/18 07:02:11;;;;;;;18.80;1.48;;;;;;;;;;4928526;29;20040;-91
2022/09/18 07:04:37;;;;;;;11.43;1.38;;;;;;;;;;4909115;29;20311;-91
2022/09/18 07:07:03;;;;;;;12.77;2.33;;;;;;;;;;4931862;28;20035;-90
2022/09/18 07:09:29;;;;;;;7.13;1.45;;;;;;;;;;4930546;29;20031;-89
2022/09/18 07:11:57;;;;;;;11.35;1.75;;;;;;;;;;4929857;29;20056;-90
2022/09/18 07:14:23;;;;;;;4.88;1.30;;;;;;;;;;4945448;28;20058;-90
2022/09/18 07:16:49;;;;;;;16.02;2.42;;;;;;;;;;4933061;29;20046;-89
2022/09/18 07:19:15;;;;;;;10.68;1.58;;;;;;;;;;4949831;29;20795;-89
2022/09/18 07:21:41;;;;;;;15.30;1.90;;;;;;;;;;4925932;29;20036;-90
2022/09/18 07:24:07;;;;;;;12.32;1.30;;;;;;;;;;4933762;29;20161;-91
2022/09/18 07:26:33;;;;;;;10.32;2.03;;;;;;;;;;4950770;28;20041;-91
2022/09/18 07:28:59;;;;;;;6.35;1.40;;;;;;;;;;4942253;29;20055;-91
2022/09/18 07:31:25;;;;;;;6.82;1.13;;;;;;;;;;4936822;29;20043;-90
2022/09/18 07:33:52;;;;;;;8.45;1.35;;;;;;;;;;4955262;29;20035;-89
2022/09/18 07:36:18;;;;;;;13.50;1.52;;;;;;;;;;4966745;28;20045;-92
2022/09/18 07:38:44;;;;;;;4.55;1.45;;;;;;;;;;4954700;29;20086;-91
2022/09/18 07:41:10;;;;;;;9.20;1.55;;;;;;;;;;4938798;29;20027;-91
2022/09/18 07:43:42;;;;;;;13.50;1.63;;;;;;;;;;4942172;29;20066;-92
2022/09/18 07:46:08;;;;;;;5.35;1.20;;;;;;;;;;4940490;28;20035;-91
2022/09/18 07:48:35;;;;;;;5.90;1.73;;;;;;;;;;4940477;29;20035;-92
2022/09/18 07:51:01;;;;;;;10.38;1.50;;;;;;;;;;4952706;28;20118;-92
2022/09/18 07:53:28;;;;;;;9.68;1.40;;;;;;;;;;4946979;28;20042;-92
2022/09/18 07:55:56;;;;;;;10.35;1.05;;;;;;;;;;4936473;29;20444;-92
2022/09/18 07:58:22;;;;;;;5.68;1.30;;;;;;;;;;4928443;28;20849;-92
2022/09/18 08:00:59;;;;;;;9.55;1.33;;;;;;;;;;4939638;29;20090;-92
2022/09/18 08:03:25;;;;;;;28.70;11.23;;;;;;;;;;4941273;28;20015;-93
2022/09/18 08:05:52;;;;;;;18.30;2.45;;;;;;;;;;4919829;28;20081;-92
2022/09/18 08:08:18;;;;;;;14.00;2.42;;;;;;;;;;4905552;29;20032;-92
2022/09/18 08:10:45;;;;;;;12.10;2.00;;;;;;;;;;4915579;29;20208;-92
2022/09/18 08:13:11;;;;;;;15.75;2.85;;;;;;;;;;4905036;29;20036;-92
2022/09/18 08:15:38;;;;;;;19.15;2.78;;;;;;;;;;4901516;29;20036;-92
2022/09/18 08:18:05;;;;;;;11.77;1.90;;;;;;;;;;4918800;29;20115;-91
2022/09/18 08:20:32;;;;;;;11.70;2.03;;;;;;;;;;4915175;29;20032;-91
2022/09/18 08:22:58;;;;;;;10.80;1.60;;;;;;;;;;4914555;29;20035;-91
2022/09/18 08:25:26;;;;;;;14.07;1.85;;;;;;;;;;4936493;29;20479;-91
2022/09/18 08:27:52;;;;;;;10.18;1.85;;;;;;;;;;4919633;29;20064;-92
2022/09/18 08:30:18;;;;;;;5.15;1.38;;;;;;;;;;4894673;29;20039;-91
2022/09/18 08:32:44;;;;;;;11.82;1.70;;;;;;;;;;4899862;29;20043;-91
2022/09/18 08:35:10;;;;;;;5.72;1.45;;;;;;;;;;4898592;29;20126;-91
2022/09/18 08:37:36;;;;;;;12.48;1.77;;;;;;;;;;4924900;29;20744;-91
2022/09/18 08:40:04;;;;;;;13.18;1.50;;;;;;;;;;4913173;29;20036;-91
2022/09/18 08:42:49;;;;;;;12.15;1.38;;;;;;;;;;4918259;29;20043;-90
2022/09/18 08:45:15;;;;;;;11.30;1.95;;;;;;;;;;4930196;29;20440;-90
2022/09/18 08:47:50;;;;;;;11.32;1.42;;;;;;;;;;4916813;29;20048;-90
2022/09/18 08:50:16;;;;;;;9.35;1.33;;;;;;;;;;4930749;29;20035;-91
2022/09/18 08:52:45;;;;;;;8.98;1.20;;;;;;;;;;4915046;29;20046;-91
2022/09/18 08:55:20;;;;;;;7.05;1.13;;;;;;;;;;4909560;29;20042;-90
2022/09/18 08:57:47;;;;;;;8.85;1.13;;;;;;;;;;4913336;29;20230;-91
2022/09/18 09:00:19;;;;;;;12.50;1.52;;;;;;;;;;4929445;29;20481;-91
2022/09/18 09:02:48;;;;;;;12.20;1.85;;;;;;;;;;4915660;29;20048;-91
2022/09/18 09:05:17;;;;;;;17.98;2.00;;;;;;;;;;4911058;29;20400;-91
2022/09/18 09:07:49;;;;;;;12.43;1.13;;;;;;;;;;4933106;28;20051;-91
2022/09/18 09:10:18;;;;;;;20.38;2.20;;;;;;;;;;4930201;28;20105;-91
2022/09/18 09:13:03;;;;;;;9.30;1.50;;;;;;;;;;4933732;29;20078;-91
2022/09/18 09:15:29;;;;;;;6.50;1.45;;;;;;;;;;4932288;29;20571;-91
2022/09/18 09:18:16;;;;;;;10.20;1.83;;;;;;;;;;4942141;28;20027;-92
2022/09/18 09:20:51;;;;;;;12.80;1.80;;;;;;;;;;4943111;28;20049;-91
2022/09/18 09:23:37;;;;;;;20.67;2.03;;;;;;;;;;4946849;28;20122;-91
2022/09/18 09:26:09;;;;;;;14.18;2.00;;;;;;;;;;4930462;28;20547;-91
2022/09/18 09:28:42;;;;;;;14.25;1.92;;;;;;;;;;4931943;29;20086;-91
2022/09/18 09:31:10;;;;;;;17.88;2.15;;;;;;;;;;4916816;28;20736;-90
2022/09/18 09:33:41;;;;;;;21.98;2.20;;;;;;;;;;4934796;28;20043;-91
2022/09/18 09:36:09;;;;;;;14.65;1.55;;;;;;;;;;4927571;29;20031;-91
2022/09/18 09:38:40;;;;;;;13.93;2.35;;;;;;;;;;4933646;29;20059;-90
2022/09/18 09:41:25;;;;;;;9.77;1.63;;;;;;;;;;4932605;28;20039;-91
2022/09/18 09:43:51;;;;;;;18.80;2.33;;;;;;;;;;4947326;28;20053;-90
2022/09/18 09:46:36;;;;;;;9.10;1.80;;;;;;;;;;4941620;28;20038;-90
2022/09/18 09:49:07;;;;;;;15.93;1.83;;;;;;;;;;4947744;28;20031;-90
2022/09/18 09:51:48;;;;;;;15.80;4.15;;;;;;;;;;4930470;29;20090;-90
2022/09/18 09:54:14;;;;;;;11.27;2.75;;;;;;;;;;4936585;28;20031;-90
2022/09/18 09:56:54;;;;;;;18.63;1.67;;;;;;;;;;4930006;28;20039;-90
2022/09/18 09:59:30;;;;;;;12.90;2.50;;;;;;;;;;4945005;28;20027;-90
2022/09/18 10:02:15;;;;;;;16.13;1.60;;;;;;;;;;4929615;28;20079;-90
2022/09/18 10:04:46;;;;;;;8.70;1.33;;;;;;;;;;4931898;29;20062;-90
2022/09/18 10:07:38;;;;;;;22.77;2.53;;;;;;;;;;4949037;28;20055;-91
2022/09/18 10:10:04;;;;;;;8.57;1.55;;;;;;;;;;4931291;29;20047;-91
2022/09/18 10:12:34;;;;;;;11.80;1.73;;;;;;;;;;4928887;28;20574;-90
2022/09/18 10:15:11;;;;;;;14.15;1.75;;;;;;;;;;4927233;28;20038;-91
2022/09/18 10:17:40;;;;;;;12.02;2.65;;;;;;;;;;4922676;28;20035;-90
2022/09/18 10:20:07;;;;;;;8.13;2.65;;;;;;;;;;4926598;29;20098;-90
2022/09/18 10:22:34;;;;;;;14.32;1.75;;;;;;;;;;4929421;28;20035;-90
2022/09/18 10:25:03;;;;;;;22.00;2.03;;;;;;;;;;4922137;28;20035;-91
2022/09/18 10:27:29;;;;;;;12.38;1.98;;;;;;;;;;4943838;28;20495;-90
2022/09/18 10:29:55;;;;;;;9.93;1.50;;;;;;;;;;4910566;29;20042;-90
2022/09/18 10:32:31;;;;;;;15.07;1.80;;;;;;;;;;4928766;28;21278;-91
2022/09/18 10:34:58;;;;;;;9.65;1.90;;;;;;;;;;4921022;29;20311;-91
2022/09/18 10:37:27;;;;;;;7.18;1.75;;;;;;;;;;4921752;28;20035;-90
2022/09/18 10:39:56;;;;;;;11.95;2.08;;;;;;;;;;4926636;28;20023;-91
2022/09/18 10:42:23;;;;;;;14.73;1.73;;;;;;;;;;4923735;28;20023;-91
2022/09/18 10:44:52;;;;;;;6.07;1.50;;;;;;;;;;4921669;28;21227;-92
2022/09/18 10:47:36;;;;;;;11.45;2.28;;;;;;;;;;4928491;28;20030;-91
2022/09/18 10:50:06;;;;;;;7.63;1.50;;;;;;;;;;4921223;28;20387;-92
2022/09/18 10:52:39;;;;;;;14.45;2.58;;;;;;;;;;4931698;28;21775;-91
2022/09/18 10:55:05;;;;;;;14.70;1.23;;;;;;;;;;4913257;28;20066;-91
2022/09/18 10:57:35;;;;;;;14.63;1.73;;;;;;;;;;4926709;28;20027;-91
2022/09/18 11:00:06;;;;;;;10.20;1.50;;;;;;;;;;4941209;28;20506;-91
2022/09/18 11:02:38;;;;;;;12.38;1.85;;;;;;;;;;4926121;28;20126;-90
2022/09/18 11:05:04;;;;;;;9.63;1.58;;;;;;;;;;4923968;29;20058;-91
2022/09/18 11:07:30;;;;;;;17.73;1.65;;;;;;;;;;4937243;28;20051;-91
2022/09/18 11:09:56;;;;;;;13.15;1.58;;;;;;;;;;4911136;29;20043;-91
2022/09/18 11:12:26;;;;;;;9.68;1.73;;;;;;;;;;4916141;28;20492;-92
2022/09/18 11:15:01;;;;;;;18.13;2.42;;;;;;;;;;4925120;28;20031;-92
2022/09/18 11:17:31;;;;;;;11.07;1.70;;;;;;;;;;4927712;28;20044;-91
2022/09/18 11:19:59;;;;;;;14.98;1.70;;;;;;;;;;4930404;28;20023;-91
2022/09/18 11:22:33;;;;;;;12.75;1.85;;;;;;;;;;4947304;28;20031;-91
2022/09/18 11:25:12;;;;;;;13.27;1.73;;;;;;;;;;4926734;28;20422;-91
2022/09/18 11:27:51;;;;;;;9.65;1.05;;;;;;;;;;4926732;29;20020;-91
2022/09/18 11:30:27;;;;;;;6.85;1.20;;;;;;;;;;4927255;28;20058;-92
2022/09/18 11:33:01;;;;;;;5.68;1.13;;;;;;;;;;4926855;28;20032;-91
2022/09/18 11:35:31;;;;;;;5.05;1.60;;;;;;;;;;4930167;28;20046;-91
2022/09/18 11:38:05;;;;;;;4.93;0.98;;;;;;;;;;4924908;28;20106;-91
2022/09/18 11:40:32;;;;;;;6.65;1.42;;;;;;;;;;4927202;28;20037;-91
2022/09/18 11:43:15;;;;;;;7.32;1.30;;;;;;;;;;4929685;28;20038;-92
2022/09/18 11:45:50;;;;;;;14.25;2.90;;;;;;;;;;4926193;28;20032;-92
2022/09/18 11:48:31;;;;;;;13.27;4.20;;;;;;;;;;4929721;28;20031;-93
2022/09/18 11:51:00;;;;;;;11.65;2.28;;;;;;;;;;4927657;29;20059;-93
2022/09/18 11:53:32;;;;;;;5.18;1.40;;;;;;;;;;4912056;28;20126;-93
2022/09/18 11:56:01;;;;;;;7.78;1.35;;;;;;;;;;4926612;29;21039;-93
2022/09/18 11:58:34;;;;;;;17.45;1.80;;;;;;;;;;4930177;28;20035;-93
2022/09/18 12:01:12;;;;;;;16.70;1.25;;;;;;;;;;4945973;28;20038;-92
2022/09/18 12:03:42;;;;;;;11.48;1.67;;;;;;;;;;4944335;28;20031;-92
2022/09/18 12:06:17;;;;;;;10.15;1.10;;;;;;;;;;4934541;28;20034;-92
2022/09/18 12:08:46;;;;;;;11.52;1.33;;;;;;;;;;4907876;29;20028;-93
2022/09/18 12:11:15;;;;;;;12.68;1.98;;;;;;;;;;4924159;29;20033;-92
2022/09/18 12:13:49;;;;;;;8.65;1.67;;;;;;;;;;4902111;29;20032;-92
2022/09/18 12:16:29;;;;;;;13.88;1.48;;;;;;;;;;4895608;29;20126;-92
2022/09/18 12:19:00;;;;;;;10.63;1.85;;;;;;;;;;4900421;29;20138;-93
2022/09/18 12:21:35;;;;;;;13.05;1.65;;;;;;;;;;4892119;29;20038;-92
2022/09/18 12:24:01;;;;;;;7.25;1.45;;;;;;;;;;4895539;29;20473;-92
2022/09/18 12:26:39;;;;;;;13.93;2.95;;;;;;;;;;4890521;29;20086;-92
2022/09/18 12:29:15;;;;;;;25.95;5.68;;;;;;;;;;4908279;29;20458;-92
2022/09/18 12:31:46;;;;;;;9.55;2.63;;;;;;;;;;4912328;29;20032;-92
2022/09/18 12:34:31;;;;;;;19.65;3.25;;;;;;;;;;4895565;29;21322;-91
2022/09/18 12:37:31;;;;;;;13.00;2.70;;;;;;;;;;4912910;29;20033;-92
2022/09/18 12:40:13;;;;;;;9.40;1.30;;;;;;;;;;4850159;29;20519;-92
2022/09/18 12:42:48;;;;;;;14.85;2.95;;;;;;;;;;4886848;29;20028;-93
2022/09/18 12:45:33;;;;;;;25.03;1.87;;;;;;;;;;4903856;29;20075;-92
2022/09/18 12:48:18;;;;;;;10.63;1.55;;;;;;;;;;4889704;29;20028;-92
2022/09/18 12:51:08;;;;;;;10.77;1.75;;;;;;;;;;4890835;29;20047;-92
2022/09/18 12:53:41;;;;;;;10.88;1.80;;;;;;;;;;4890432;29;20773;-92
2022/09/18 12:56:21;;;;;;;8.40;1.50;;;;;;;;;;4890873;29;20034;-92
2022/09/18 12:59:05;;;;;;;11.50;1.35;;;;;;;;;;4904448;29;20038;-92
2022/09/18 13:01:34;;;;;;;4.78;1.17;;;;;;;;;;4890857;29;20187;-91
2022/09/18 13:04:15;;;;;;;10.52;1.40;;;;;;;;;;4887849;29;20174;-91
2022/09/18 13:06:45;;;;;;;12.07;4.90;;;;;;;;;;4910862;28;20047;-91
2022/09/18 13:09:18;;;;;;;7.40;1.30;;;;;;;;;;4903667;29;20047;-92
2022/09/18 13:11:53;;;;;;;5.72;1.58;;;;;;;;;;4924323;29;20035;-93
2022/09/18 13:14:26;;;;;;;9.32;2.40;;;;;;;;;;4903752;29;20036;-92
2022/09/18 13:16:58;;;;;;;12.27;2.13;;;;;;;;;;4924987;29;20040;-93
2022/09/18 13:19:46;;;;;;;7.65;1.52;;;;;;;;;;4927245;29;20031;-92
2022/09/18 13:22:18;;;;;;;9.88;1.40;;;;;;;;;;4909769;29;20122;-92
2022/09/18 13:24:46;;;;;;;2.30;0.88;;;;;;;;;;4903551;29;20570;-92
2022/09/18 13:27:14;;;;;;;7.30;1.27;;;;;;;;;;4911064;29;20131;-93
2022/09/18 13:29:53;;;;;;;8.63;1.23;;;;;;;;;;4912634;29;20039;-93
2022/09/18 13:32:31;;;;;;;10.57;1.33;;;;;;;;;;4908226;29;20032;-94
2022/09/18 13:34:59;;;;;;;6.80;1.98;;;;;;;;;;4921726;29;20046;-93
2022/09/18 13:37:25;;;;;;;12.95;3.65;;;;;;;;;;4912204;29;20433;-93
2022/09/18 13:40:04;;;;;;;9.07;1.50;;;;;;;;;;4925350;29;20684;-94
2022/09/18 13:42:32;;;;;;;7.10;1.52;;;;;;;;;;4920825;29;20023;-93
2022/09/18 13:45:25;;;;;;;11.95;1.63;;;;;;;;;;4907264;29;20024;-93
2022/09/18 13:48:05;;;;;;;15.75;1.27;;;;;;;;;;4904842;29;20032;-93
2022/09/18 13:50:32;;;;;;;16.17;1.67;;;;;;;;;;4903309;29;20032;-92
2022/09/18 13:52:59;;;;;;;10.48;1.92;;;;;;;;;;4908468;29;20043;-93
2022/09/18 13:55:26;;;;;;;8.38;1.60;;;;;;;;;;4906863;29;20035;-93
2022/09/18 13:58:35;;;;;;;10.68;1.73;;;;;;;;;;4911368;29;20114;-92
2022/09/18 14:01:02;;;;;;;13.45;2.72;;;;;;;;;;4883819;29;20117;-93
2022/09/18 14:03:28;;;;;;;10.95;1.80;;;;;;;;;;4902918;29;20416;-93
2022/09/18 14:05:54;;;;;;;11.95;1.58;;;;;;;;;;4909691;29;20035;-93
2022/09/18 14:08:21;;;;;;;16.73;1.85;;;;;;;;;;4924402;28;20061;-93
2022/09/18 14:10:50;;;;;;;18.63;4.82;;;;;;;;;;4925745;29;20032;-94
2022/09/18 14:13:21;;;;;;;10.82;1.20;;;;;;;;;;4928424;29;20039;-93
2022/09/18 14:15:51;;;;;;;6.70;1.30;;;;;;;;;;4923846;29;21374;-93
2022/09/18 14:18:21;;;;;;;11.35;1.85;;;;;;;;;;4946617;28;20040;-92
2022/09/18 14:20:52;;;;;;;10.63;1.77;;;;;;;;;;4926534;29;20074;-93
2022/09/18 14:23:34;;;;;;;12.77;1.27;;;;;;;;;;4920494;29;20502;-93
2022/09/18 14:26:00;;;;;;;11.20;1.92;;;;;;;;;;4942157;28;20039;-93
2022/09/18 14:28:27;;;;;;;15.65;2.80;;;;;;;;;;4925673;29;20047;-93
2022/09/18 14:31:26;;;;;;;19.45;2.47;;;;;;;;;;4923859;29;20036;-93
2022/09/18 14:33:52;;;;;;;11.63;2.90;;;;;;;;;;4936415;28;20068;-93
2022/09/18 14:36:19;;;;;;;10.32;2.05;;;;;;;;;;4923286;29;20035;-93
2022/09/18 14:38:45;;;;;;;10.68;1.83;;;;;;;;;;4925718;29;20068;-93
2022/09/18 14:41:20;;;;;;;16.52;1.95;;;;;;;;;;4907405;29;21183;-93
2022/09/18 14:44:00;;;;;;;15.82;2.33;;;;;;;;;;4919109;29;20031;-92
2022/09/18 14:46:27;;;;;;;11.07;3.42;;;;;;;;;;4917451;29;20071;-92
2022/09/18 14:48:54;;;;;;;30.50;11.30;;;;;;;;;;4917709;29;20032;-93
2022/09/18 14:51:22;;;;;;;18.67;5.95;;;;;;;;;;4920736;29;20039;-92